Briefing drone pour Montrond-les-bains

Rechercher une autre localisation

Conditions de vol :


Nous sommes le : Mardi 27 septembre 2022
Il est 22:35 UTC (00:35 LT)

Lever de soleil : 05:09 UTC (07:09 LT)
Coucher de soleil : 17:58 UTC (19:58 LT)

Météo

L'essentiel des conditions de vol

VIGILANCE MÉTÉO FRANCE - Loire (42)
Pas de vigilances particulieres
CARTE TEMSI
CARTES DES FRONTS
METAR de LFMH
LFMH 262230Z AUTO 23005KT 160V290 9999 FEW033 BKN048 OVC060 14/07 Q1007

Date d'émission: 26/09/2022
Heure d'émission: 22:30 UTC
Vent: 230° (variable du 160° au 290°) pour 5 KT (9 km/h)
Visibilité horizontale: > 10 km
Plafond :
- Peu de nuages à 3300ft (1006m)
- Nuages morcelés à 4800ft (1463m)
- Couvert à 6000ft (1829m)
Température: 14 °C
Point de rosée: 7 °C
Humidité: 63%
Pression (QNH): 1007 hPa
TAF de LFMH
LFMH 161901Z 1619/1712 CNL

Conditions prévues :

Heure d'émission : Bulletin éffectué le 16 à 19:00 UTC
Prévision : Valide du 16 a 19:00 UTC au 17 a 12:00 UTC
Nuages : à 0ft (0 m)
WEBCAM POUR MONTROND-LES-BAINS

Réglementation

Voler en sécurité

CARTES AERONAUTIQUE 1/500.000
CARTE AZBA (Reseau basse altitude)
CARTES VAC (LFMH)
SUP AIP




Chargement des AIP...
NOTAM (MONTROND-LES-BAINS + Terrain à proximité / FIR )




Chargement des NOTAMS...
CONTACT PREFECTURE 42


Avertissement : Les données mises à disposition sont indicatives. Oxygène Drone ne pourra être tenu responsable de dégâts causés aux biens et aux personnes.